Matthews, GA (30818)

7:10 AM EDT on March 28, 2015 (GMT -0400)
Heatwole Family Allen Rd.,North Burke County | | Change Station
CLOSE
Current Station
Personal Weather Station
Location: Hephzibah, GA
Elevation: 364 ft
Nearby Weather Stations
Active Advisory: Freeze Warning

Elev 364 ft 33.19 °N, 82.02 °W | Updated 2 minutes ago

Clear
Clear
39.7 °F
Feels Like 35 °F
N
6.3
Wind Variable Wind from WNW
Gusts 9.0 mph

Today
High -- | Low -- °F
--% Chance of Precip.
Yesterday
High -- | Low -- °F
Precip. -- in
7:22 AM 7:46 PM
First Quarter, 61% visible
Pressure 30.04 in
Visibility 10.0 miles
Clouds Clear
Windchill 35 °F
Dew Point 33 °F
Humidity 76%
Rainfall 0.00 in
Snow Depth Not available.
UV 0 out of 12
Pollen 9.70 out of 12
Air Quality Not available.
Flu Activity Not available.
METAR KAGS 281053Z 29007KT 10SM CLR 04/M02 A3003 RMK AO2 SLP170 T00441017

More Conditions Fewer Conditions

Pressure 30.04 in
Visibility 10.0 miles
Clouds Clear
Windchill 35 °F
Dew Point 33 °F
Humidity 76%
Rainfall 0.00 in
Snow Depth Not available.
UV 0 out of 12
Pollen 9.70 out of 12
Air Quality Not available.
Flu Activity Not available.
METAR KAGS 281053Z 29007KT 10SM CLR 04/M02 A3003 RMK AO2 SLP170 T00441017

More Conditions Fewer Conditions

10-Day Weather Forecast

Almanac

Astronomy

Mar. 28, 2015 Rise Set
Actual Time
Civil Twilight
Nautical Twilight
Astronomical Twilight
Moon
Length of Visible Light
Length of Day
Tomorrow will be .
, % of the Moon is Illuminated

Today's Extremes

State Highs State Lows

Community

WunderPhotos

Upload Photos

1,808,956 photos uploaded!

WunderBlogs® & News

Nearby

Air Quality

  Air Quality AQ Index Pollutant
Not available.

Snow Depth

Station Depth Elevation

Earthquake Activity

City Distance Mag. Time & Date
Minimum magnitude displayed is 2.5.

Coastal Water Temperatures

Place Temperature

Stations

Nearby Weather Stations

Station Location Temp. Windchill Dew Point Humidity Wind Precip. Elev Updated Type
                   
Freeze Warning
Statement as of 3:58 AM EDT on March 28, 2015

... Freeze warning now in effect from midnight tonight to 10 am
EDT Sunday...

The National Weather Service in Peachtree City has issued a
freeze warning... which is in effect from midnight tonight to
10 am EDT Sunday. The freeze watch is no longer in effect.

* Locations... north of a line from Hamilton to Macon and
Louisville.

* Temperatures... in the lower 30s.

* Timing... midnight tonight to 10am Sunday morning.

* Impacts... freezing temperatures will damage tender vegetation.

Precautionary/preparedness actions...

A freeze warning means freezing temperatures are forecast to
threaten outdoor plants. Those with agricultural interests
in the warned area are advised to harvest or protect tender
vegetation.